sensor_id;sensor_type;location;lat;lon;timestamp;pressure;altitude;pressure_sealevel;temperature;humidity
63088;BME280;49173;43.164;27.786;2022-09-20T00:00:44;100364.03;;;15.63;54.78
63088;BME280;49173;43.164;27.786;2022-09-20T00:03:11;100356.03;;;15.61;54.89
63088;BME280;49173;43.164;27.786;2022-09-20T00:05:40;100363.16;;;15.62;54.96
63088;BME280;49173;43.164;27.786;2022-09-20T00:08:08;100348.13;;;15.58;55.21
63088;BME280;49173;43.164;27.786;2022-09-20T00:10:35;100347.38;;;15.56;55.21
63088;BME280;49173;43.164;27.786;2022-09-20T00:13:05;100353.03;;;15.53;54.97
63088;BME280;49173;43.164;27.786;2022-09-20T00:15:33;100335.28;;;15.49;55.43
63088;BME280;49173;43.164;27.786;2022-09-20T00:17:58;100330.00;;;15.48;55.07
63088;BME280;49173;43.164;27.786;2022-09-20T00:20:25;100339.63;;;15.52;55.19
63088;BME280;49173;43.164;27.786;2022-09-20T00:22:51;100338.75;;;15.51;55.57
63088;BME280;49173;43.164;27.786;2022-09-20T00:25:18;100329.00;;;15.49;55.71
63088;BME280;49173;43.164;27.786;2022-09-20T00:27:45;100332.19;;;15.43;55.30
63088;BME280;49173;43.164;27.786;2022-09-20T00:30:12;100329.72;;;15.39;55.30
63088;BME280;49173;43.164;27.786;2022-09-20T00:32:39;100322.47;;;15.40;55.73
63088;BME280;49173;43.164;27.786;2022-09-20T00:35:06;100326.03;;;15.41;55.66
63088;BME280;49173;43.164;27.786;2022-09-20T00:37:42;100316.53;;;15.35;55.70
63088;BME280;49173;43.164;27.786;2022-09-20T00:40:15;100319.38;;;15.33;55.59
63088;BME280;49173;43.164;27.786;2022-09-20T00:42:41;100306.19;;;15.29;55.77
63088;BME280;49173;43.164;27.786;2022-09-20T00:45:28;100308.28;;;15.25;56.03
63088;BME280;49173;43.164;27.786;2022-09-20T00:48:05;100296.31;;;15.17;56.26
63088;BME280;49173;43.164;27.786;2022-09-20T00:53:18;100305.22;;;15.06;56.75
63088;BME280;49173;43.164;27.786;2022-09-20T00:56:16;100292.28;;;14.98;56.77
63088;BME280;49173;43.164;27.786;2022-09-20T00:58:53;100303.31;;;14.95;56.57
63088;BME280;49173;43.164;27.786;2022-09-20T01:01:24;100298.13;;;14.92;56.67
63088;BME280;49173;43.164;27.786;2022-09-20T01:03:50;100296.19;;;14.94;56.60
63088;BME280;49173;43.164;27.786;2022-09-20T01:06:16;100300.63;;;14.95;56.51
63088;BME280;49173;43.164;27.786;2022-09-20T01:08:46;100305.78;;;14.98;56.50
63088;BME280;49173;43.164;27.786;2022-09-20T01:11:14;100297.56;;;15.00;56.59
63088;BME280;49173;43.164;27.786;2022-09-20T01:13:40;100302.88;;;15.01;56.47
63088;BME280;49173;43.164;27.786;2022-09-20T01:16:06;100312.47;;;15.05;56.29
63088;BME280;49173;43.164;27.786;2022-09-20T01:18:33;100300.91;;;15.03;56.65
63088;BME280;49173;43.164;27.786;2022-09-20T01:21:01;100302.63;;;15.04;56.39
63088;BME280;49173;43.164;27.786;2022-09-20T01:23:42;100297.97;;;15.06;56.35
63088;BME280;49173;43.164;27.786;2022-09-20T01:31:52;100296.38;;;15.04;56.05
63088;BME280;49173;43.164;27.786;2022-09-20T01:37:27;100312.47;;;15.05;56.38
63088;BME280;49173;43.164;27.786;2022-09-20T01:43:01;100306.19;;;15.05;56.65
63088;BME280;49173;43.164;27.786;2022-09-20T01:45:32;100304.69;;;15.01;56.45
63088;BME280;49173;43.164;27.786;2022-09-20T02:05:52;100308.44;;;15.11;55.78
63088;BME280;49173;43.164;27.786;2022-09-20T02:17:09;100311.16;;;15.11;56.14
63088;BME280;49173;43.164;27.786;2022-09-20T02:20:03;100311.16;;;15.11;55.95
63088;BME280;49173;43.164;27.786;2022-09-20T02:22:39;100311.16;;;15.11;56.03
63088;BME280;49173;43.164;27.786;2022-09-20T02:30:55;100327.47;;;15.09;55.91
63088;BME280;49173;43.164;27.786;2022-09-20T02:36:38;100328.56;;;15.07;56.12
63088;BME280;49173;43.164;27.786;2022-09-20T02:39:16;100330.41;;;15.06;56.34
63088;BME280;49173;43.164;27.786;2022-09-20T02:41:52;100333.09;;;15.06;56.54
63088;BME280;49173;43.164;27.786;2022-09-20T02:47:36;100332.81;;;14.98;56.40
63088;BME280;49173;43.164;27.786;2022-09-20T02:52:53;100336.72;;;14.94;56.85
63088;BME280;49173;43.164;27.786;2022-09-20T03:01:06;100339.44;;;14.94;56.99
63088;BME280;49173;43.164;27.786;2022-09-20T03:12:07;100333.19;;;14.81;57.54
63088;BME280;49173;43.164;27.786;2022-09-20T03:18:05;100351.34;;;14.79;57.84
63088;BME280;49173;43.164;27.786;2022-09-20T03:26:14;100336.03;;;14.67;58.24
63088;BME280;49173;43.164;27.786;2022-09-20T03:29:24;100338.75;;;14.67;58.06
63088;BME280;49173;43.164;27.786;2022-09-20T03:37:49;100350.50;;;14.66;58.15
63088;BME280;49173;43.164;27.786;2022-09-20T03:40:45;100349.22;;;14.59;58.41
63088;BME280;49173;43.164;27.786;2022-09-20T03:46:06;100354.84;;;14.55;58.55
63088;BME280;49173;43.164;27.786;2022-09-20T04:00:19;100385.53;;;14.54;58.72
63088;BME280;49173;43.164;27.786;2022-09-20T04:05:51;100383.38;;;14.47;59.24
63088;BME280;49173;43.164;27.786;2022-09-20T04:22:37;100386.72;;;14.38;58.55
63088;BME280;49173;43.164;27.786;2022-09-20T04:25:14;100376.84;;;14.37;58.42
63088;BME280;49173;43.164;27.786;2022-09-20T04:27:49;100367.03;;;14.36;58.59
63088;BME280;49173;43.164;27.786;2022-09-20T04:30:21;100383.34;;;14.34;58.63
63088;BME280;49173;43.164;27.786;2022-09-20T04:38:26;100388.84;;;14.33;58.33
63088;BME280;49173;43.164;27.786;2022-09-20T04:59:02;100407.00;;;14.43;57.05
63088;BME280;49173;43.164;27.786;2022-09-20T05:04:31;100411.41;;;14.44;56.96
63088;BME280;49173;43.164;27.786;2022-09-20T05:16:05;100399.16;;;14.53;56.95
63088;BME280;49173;43.164;27.786;2022-09-20T05:29:32;100404.06;;;14.97;55.34
63088;BME280;49173;43.164;27.786;2022-09-20T05:32:29;100412.59;;;15.04;55.47
63088;BME280;49173;43.164;27.786;2022-09-20T05:35:11;100406.50;;;15.13;55.07
63088;BME280;49173;43.164;27.786;2022-09-20T05:38:04;100402.81;;;15.14;54.31
63088;BME280;49173;43.164;27.786;2022-09-20T05:43:12;100411.34;;;15.21;54.22
63088;BME280;49173;43.164;27.786;2022-09-20T05:46:13;100410.22;;;15.36;53.66
63088;BME280;49173;43.164;27.786;2022-09-20T05:54:31;100395.91;;;15.71;52.58
63088;BME280;49173;43.164;27.786;2022-09-20T05:57:40;100406.06;;;15.80;52.27
63088;BME280;49173;43.164;27.786;2022-09-20T06:00:15;100408.78;;;15.91;52.42
63088;BME280;49173;43.164;27.786;2022-09-20T06:05:52;100417.50;;;16.18;52.24
63088;BME280;49173;43.164;27.786;2022-09-20T06:14:14;100415.31;;;16.24;51.05
63088;BME280;49173;43.164;27.786;2022-09-20T06:19:45;100417.44;;;16.42;50.37
63088;BME280;49173;43.164;27.786;2022-09-20T06:22:30;100416.94;;;16.48;50.37
63088;BME280;49173;43.164;27.786;2022-09-20T06:28:15;100417.94;;;16.36;50.60
63088;BME280;49173;43.164;27.786;2022-09-20T06:30:43;100423.69;;;16.32;50.08
63088;BME280;49173;43.164;27.786;2022-09-20T06:33:19;100432.50;;;16.11;49.54
63088;BME280;49173;43.164;27.786;2022-09-20T06:42:01;100432.94;;;15.94;50.19
63088;BME280;49173;43.164;27.786;2022-09-20T06:44:27;100434.88;;;15.92;50.67
63088;BME280;49173;43.164;27.786;2022-09-20T06:46:52;100442.38;;;15.88;50.45
63088;BME280;49173;43.164;27.786;2022-09-20T06:49:19;100440.78;;;15.86;50.68
63088;BME280;49173;43.164;27.786;2022-09-20T06:51:46;100445.09;;;15.88;50.60
63088;BME280;49173;43.164;27.786;2022-09-20T06:54:19;100448.91;;;15.86;50.50
63088;BME280;49173;43.164;27.786;2022-09-20T06:56:48;100453.09;;;15.90;50.93
63088;BME280;49173;43.164;27.786;2022-09-20T06:59:15;100454.47;;;15.96;50.53
63088;BME280;49173;43.164;27.786;2022-09-20T07:01:41;100454.75;;;16.04;50.30
63088;BME280;49173;43.164;27.786;2022-09-20T07:04:07;100461.75;;;16.06;50.75
63088;BME280;49173;43.164;27.786;2022-09-20T07:06:34;100466.50;;;16.15;50.19
63088;BME280;49173;43.164;27.786;2022-09-20T07:09:00;100465.63;;;16.15;50.62
63088;BME280;49173;43.164;27.786;2022-09-20T07:11:26;100464.53;;;16.17;49.92
63088;BME280;49173;43.164;27.786;2022-09-20T07:13:54;100461.34;;;16.24;48.81
63088;BME280;49173;43.164;27.786;2022-09-20T07:16:20;100464.31;;;16.32;49.41
63088;BME280;49173;43.164;27.786;2022-09-20T07:18:47;100451.91;;;16.40;49.21
63088;BME280;49173;43.164;27.786;2022-09-20T07:21:15;100464.84;;;16.48;49.00
63088;BME280;49173;43.164;27.786;2022-09-20T07:23:41;100465.84;;;16.47;48.42
63088;BME280;49173;43.164;27.786;2022-09-20T07:26:19;100465.34;;;16.53;48.29
63088;BME280;49173;43.164;27.786;2022-09-20T07:28:45;100469.31;;;16.60;48.59
63088;BME280;49173;43.164;27.786;2022-09-20T07:31:11;100466.47;;;16.62;48.18
63088;BME280;49173;43.164;27.786;2022-09-20T07:33:37;100467.97;;;16.66;48.52
63088;BME280;49173;43.164;27.786;2022-09-20T07:36:03;100456.28;;;16.65;48.15
63088;BME280;49173;43.164;27.786;2022-09-20T07:38:28;100450.41;;;16.71;48.51
63088;BME280;49173;43.164;27.786;2022-09-20T07:40:58;100438.44;;;16.74;48.63
63088;BME280;49173;43.164;27.786;2022-09-20T07:43:25;100447.69;;;16.83;48.95
63088;BME280;49173;43.164;27.786;2022-09-20T07:45:52;100436.63;;;16.86;48.06
63088;BME280;49173;43.164;27.786;2022-09-20T07:48:20;100440.19;;;16.86;47.49
63088;BME280;49173;43.164;27.786;2022-09-20T07:50:56;100435.75;;;16.85;47.71
63088;BME280;49173;43.164;27.786;2022-09-20T07:53:22;100438.22;;;16.88;47.37
63088;BME280;49173;43.164;27.786;2022-09-20T07:58:26;100441.19;;;16.85;47.43
63088;BME280;49173;43.164;27.786;2022-09-20T08:00:57;100441.66;;;16.90;46.21
63088;BME280;49173;43.164;27.786;2022-09-20T08:03:24;100440.44;;;16.94;46.46
63088;BME280;49173;43.164;27.786;2022-09-20T08:05:51;100449.16;;;16.98;45.47
63088;BME280;49173;43.164;27.786;2022-09-20T08:08:18;100436.38;;;17.00;45.85
63088;BME280;49173;43.164;27.786;2022-09-20T08:10:45;100442.41;;;17.03;45.15
63088;BME280;49173;43.164;27.786;2022-09-20T08:13:14;100441.41;;;17.05;45.37
63088;BME280;49173;43.164;27.786;2022-09-20T08:15:40;100445.75;;;17.07;45.80
63088;BME280;49173;43.164;27.786;2022-09-20T08:18:08;100447.19;;;17.11;45.47
63088;BME280;49173;43.164;27.786;2022-09-20T08:20:35;100434.41;;;17.13;45.26
63088;BME280;49173;43.164;27.786;2022-09-20T08:23:03;100437.72;;;17.17;45.32
63088;BME280;49173;43.164;27.786;2022-09-20T08:25:29;100425.13;;;17.16;45.29
63088;BME280;49173;43.164;27.786;2022-09-20T08:27:54;100439.28;;;17.19;45.95
63088;BME280;49173;43.164;27.786;2022-09-20T08:30:20;100436.59;;;17.30;46.30
63088;BME280;49173;43.164;27.786;2022-09-20T08:32:47;100436.09;;;17.37;46.12
63088;BME280;49173;43.164;27.786;2022-09-20T08:35:13;100432.16;;;17.41;45.09
63088;BME280;49173;43.164;27.786;2022-09-20T08:37:40;100426.44;;;17.44;45.19
63088;BME280;49173;43.164;27.786;2022-09-20T08:40:17;100433.38;;;17.48;44.45
63088;BME280;49173;43.164;27.786;2022-09-20T08:42:43;100433.97;;;17.40;42.81
63088;BME280;49173;43.164;27.786;2022-09-20T08:45:18;100422.28;;;17.28;41.86
63088;BME280;49173;43.164;27.786;2022-09-20T08:47:49;100418.22;;;17.34;43.36
63088;BME280;49173;43.164;27.786;2022-09-20T08:50:17;100415.59;;;17.44;43.91
63088;BME280;49173;43.164;27.786;2022-09-20T08:52:49;100416.81;;;17.51;43.22
63088;BME280;49173;43.164;27.786;2022-09-20T08:55:22;100422.47;;;17.59;43.80
63088;BME280;49173;43.164;27.786;2022-09-20T08:57:50;100411.59;;;17.59;43.03
63088;BME280;49173;43.164;27.786;2022-09-20T09:00:20;100415.78;;;17.63;42.64
63088;BME280;49173;43.164;27.786;2022-09-20T09:02:49;100419.25;;;17.54;42.81
63088;BME280;49173;43.164;27.786;2022-09-20T09:05:36;100416.03;;;17.60;42.49
63088;BME280;49173;43.164;27.786;2022-09-20T09:10:48;100392.19;;;17.75;42.53
63088;BME280;49173;43.164;27.786;2022-09-20T09:15:58;100391.69;;;17.81;41.73
63088;BME280;49173;43.164;27.786;2022-09-20T09:18:32;100384.16;;;17.84;41.46
63088;BME280;49173;43.164;27.786;2022-09-20T09:20:59;100383.16;;;17.86;41.00
63088;BME280;49173;43.164;27.786;2022-09-20T09:23:28;100382.16;;;17.87;40.81
63088;BME280;49173;43.164;27.786;2022-09-20T09:26:03;100393.66;;;17.90;39.88
63088;BME280;49173;43.164;27.786;2022-09-20T09:28:30;100389.78;;;17.93;38.44
63088;BME280;49173;43.164;27.786;2022-09-20T09:31:12;100381.38;;;17.96;38.10
63088;BME280;49173;43.164;27.786;2022-09-20T09:33:43;100393.22;;;17.95;38.37
63088;BME280;49173;43.164;27.786;2022-09-20T09:36:23;100394.69;;;17.99;39.30
63088;BME280;49173;43.164;27.786;2022-09-20T09:39:12;100388.13;;;18.01;38.66
63088;BME280;49173;43.164;27.786;2022-09-20T09:41:36;100401.06;;;18.09;38.83
63088;BME280;49173;43.164;27.786;2022-09-20T09:44:21;100385.75;;;18.08;38.74
63088;BME280;49173;43.164;27.786;2022-09-20T09:46:47;100384.50;;;18.12;39.11
63088;BME280;49173;43.164;27.786;2022-09-20T09:49:19;100393.09;;;18.17;38.70
63088;BME280;49173;43.164;27.786;2022-09-20T09:52:11;100389.88;;;18.23;39.68
63088;BME280;49173;43.164;27.786;2022-09-20T09:54:40;100388.34;;;18.30;39.01
63088;BME280;49173;43.164;27.786;2022-09-20T10:00:14;100381.22;;;18.39;38.40
63088;BME280;49173;43.164;27.786;2022-09-20T10:17:03;100383.06;;;18.59;37.68
63088;BME280;49173;43.164;27.786;2022-09-20T10:22:30;100373.19;;;18.79;37.64
63088;BME280;49173;43.164;27.786;2022-09-20T10:28:22;100382.66;;;18.85;37.26
63088;BME280;49173;43.164;27.786;2022-09-20T10:31:16;100372.22;;;18.90;37.64
63088;BME280;49173;43.164;27.786;2022-09-20T10:37:00;100368.81;;;18.98;37.82
63088;BME280;49173;43.164;27.786;2022-09-20T10:39:33;100366.66;;;19.01;37.23
63088;BME280;49173;43.164;27.786;2022-09-20T10:45:18;100358.44;;;19.22;36.86
63088;BME280;49173;43.164;27.786;2022-09-20T11:07:35;100359.66;;;19.78;36.30
63088;BME280;49173;43.164;27.786;2022-09-20T11:09:38;100370.84;;;19.84;35.96
63088;BME280;49173;43.164;27.786;2022-09-20T11:12:23;100369.97;;;19.93;35.54
63088;BME280;49173;43.164;27.786;2022-09-20T11:15:01;100373.28;;;19.97;34.46
63088;BME280;49173;43.164;27.786;2022-09-20T11:17:37;100356.06;;;20.06;34.81
63088;BME280;49173;43.164;27.786;2022-09-20T11:20:18;100349.16;;;20.12;35.37
63088;BME280;49173;43.164;27.786;2022-09-20T11:22:57;100344.13;;;20.26;35.79
63088;BME280;49173;43.164;27.786;2022-09-20T11:25:48;100353.28;;;20.45;35.61
63088;BME280;49173;43.164;27.786;2022-09-20T11:28:43;100338.75;;;20.54;35.29
63088;BME280;49173;43.164;27.786;2022-09-20T11:31:28;100340.03;;;20.60;35.38
63088;BME280;49173;43.164;27.786;2022-09-20T11:34:07;100337.69;;;20.65;35.70
63088;BME280;49173;43.164;27.786;2022-09-20T11:36:56;100342.28;;;20.74;35.47
63088;BME280;49173;43.164;27.786;2022-09-20T11:42:04;100334.25;;;20.72;34.82
63088;BME280;49173;43.164;27.786;2022-09-20T11:44:32;100339.22;;;20.77;35.11
63088;BME280;49173;43.164;27.786;2022-09-20T11:58:07;100326.44;;;21.05;34.54
63088;BME280;49173;43.164;27.786;2022-09-20T12:00:36;100334.88;;;21.11;33.84
63088;BME280;49173;43.164;27.786;2022-09-20T12:03:06;100324.38;;;21.17;33.63
63088;BME280;49173;43.164;27.786;2022-09-20T12:05:37;100328.66;;;21.19;33.94
63088;BME280;49173;43.164;27.786;2022-09-20T12:08:07;100317.28;;;21.24;33.58
63088;BME280;49173;43.164;27.786;2022-09-20T12:10:54;100338.56;;;21.30;33.66
63088;BME280;49173;43.164;27.786;2022-09-20T12:13:23;100329.09;;;21.42;33.21
63088;BME280;49173;43.164;27.786;2022-09-20T12:16:06;100330.38;;;21.48;33.16
63088;BME280;49173;43.164;27.786;2022-09-20T12:21:20;100329.75;;;21.54;32.53
63088;BME280;49173;43.164;27.786;2022-09-20T12:28:47;100318.84;;;21.72;32.20
63088;BME280;49173;43.164;27.786;2022-09-20T12:34:03;100323.41;;;21.89;32.07
63088;BME280;49173;43.164;27.786;2022-09-20T12:39:31;100325.91;;;22.00;31.36
63088;BME280;49173;43.164;27.786;2022-09-20T12:52:34;100326.53;;;21.76;30.55
63088;BME280;49173;43.164;27.786;2022-09-20T12:58:04;100325.97;;;21.90;31.21
63088;BME280;49173;43.164;27.786;2022-09-20T13:00:45;100315.66;;;22.02;31.42
63088;BME280;49173;43.164;27.786;2022-09-20T13:05:42;100309.63;;;22.16;31.50
63088;BME280;49173;43.164;27.786;2022-09-20T13:08:15;100316.19;;;22.24;30.94
63088;BME280;49173;43.164;27.786;2022-09-20T13:10:56;100312.25;;;22.26;30.49
63088;BME280;49173;43.164;27.786;2022-09-20T13:13:32;100321.22;;;22.36;30.87
63088;BME280;49173;43.164;27.786;2022-09-20T13:16:02;100317.88;;;22.51;30.70
63088;BME280;49173;43.164;27.786;2022-09-20T13:18:30;100323.19;;;22.52;30.10
63088;BME280;49173;43.164;27.786;2022-09-20T13:20:57;100316.38;;;22.56;30.13
63088;BME280;49173;43.164;27.786;2022-09-20T13:23:44;100318.63;;;22.61;30.16
63088;BME280;49173;43.164;27.786;2022-09-20T13:26:11;100319.44;;;22.53;30.33
63088;BME280;49173;43.164;27.786;2022-09-20T13:28:48;100313.78;;;22.55;30.02
63088;BME280;49173;43.164;27.786;2022-09-20T13:31:31;100320.66;;;22.59;30.14
63088;BME280;49173;43.164;27.786;2022-09-20T13:34:18;100317.75;;;22.60;30.07
63088;BME280;49173;43.164;27.786;2022-09-20T13:36:45;100323.22;;;22.60;30.19
63088;BME280;49173;43.164;27.786;2022-09-20T13:39:27;100324.66;;;22.38;30.42
63088;BME280;49173;43.164;27.786;2022-09-20T13:41:58;100326.47;;;22.30;30.88
63088;BME280;49173;43.164;27.786;2022-09-20T13:44:28;100325.78;;;22.28;30.91
63088;BME280;49173;43.164;27.786;2022-09-20T13:46:57;100332.91;;;22.20;31.06
63088;BME280;49173;43.164;27.786;2022-09-20T13:49:30;100334.31;;;22.07;30.91
63088;BME280;49173;43.164;27.786;2022-09-20T13:51:56;100325.34;;;21.97;31.05
63088;BME280;49173;43.164;27.786;2022-09-20T13:54:27;100330.22;;;21.85;31.09
63088;BME280;49173;43.164;27.786;2022-09-20T13:56:56;100328.13;;;21.79;31.43
63088;BME280;49173;43.164;27.786;2022-09-20T13:59:25;100328.56;;;21.74;31.51
63088;BME280;49173;43.164;27.786;2022-09-20T14:01:54;100327.88;;;21.72;30.97
63088;BME280;49173;43.164;27.786;2022-09-20T14:04:24;100336.22;;;21.71;31.17
63088;BME280;49173;43.164;27.786;2022-09-20T14:06:52;100329.34;;;21.66;31.12
63088;BME280;49173;43.164;27.786;2022-09-20T14:09:34;100333.72;;;21.59;31.06
63088;BME280;49173;43.164;27.786;2022-09-20T14:12:04;100335.59;;;21.59;31.44
63088;BME280;49173;43.164;27.786;2022-09-20T14:14:32;100342.94;;;21.58;31.73
63088;BME280;49173;43.164;27.786;2022-09-20T14:17:00;100323.81;;;21.58;31.44
63088;BME280;49173;43.164;27.786;2022-09-20T14:19:29;100328.34;;;21.67;31.43
63088;BME280;49173;43.164;27.786;2022-09-20T14:21:58;100326.63;;;21.66;31.35
63088;BME280;49173;43.164;27.786;2022-09-20T14:24:30;100336.53;;;21.67;31.39
63088;BME280;49173;43.164;27.786;2022-09-20T14:29:46;100339.19;;;21.59;31.24
63088;BME280;49173;43.164;27.786;2022-09-20T14:37:42;100338.78;;;21.54;31.68
63088;BME280;49173;43.164;27.786;2022-09-20T14:40:24;100346.59;;;21.49;31.69
63088;BME280;49173;43.164;27.786;2022-09-20T14:42:59;100340.84;;;21.52;31.65
63088;BME280;49173;43.164;27.786;2022-09-20T14:45:37;100345.13;;;21.55;31.93
63088;BME280;49173;43.164;27.786;2022-09-20T14:50:37;100354.03;;;21.57;32.07
63088;BME280;49173;43.164;27.786;2022-09-20T14:55:36;100348.16;;;21.52;31.93
63088;BME280;49173;43.164;27.786;2022-09-20T14:58:09;100356.53;;;21.50;32.03
63088;BME280;49173;43.164;27.786;2022-09-20T15:03:25;100363.91;;;21.40;31.32
63088;BME280;49173;43.164;27.786;2022-09-20T15:05:51;100361.66;;;21.35;31.39
63088;BME280;49173;43.164;27.786;2022-09-20T15:08:17;100366.38;;;21.33;31.76
63088;BME280;49173;43.164;27.786;2022-09-20T15:10:45;100362.09;;;21.31;31.54
63088;BME280;49173;43.164;27.786;2022-09-20T15:13:11;100360.97;;;21.24;31.39
63088;BME280;49173;43.164;27.786;2022-09-20T15:15:37;100361.00;;;21.14;32.15
63088;BME280;49173;43.164;27.786;2022-09-20T15:18:09;100364.22;;;21.09;32.24
63088;BME280;49173;43.164;27.786;2022-09-20T15:20:39;100369.84;;;21.08;32.16
63088;BME280;49173;43.164;27.786;2022-09-20T15:23:05;100363.97;;;21.03;32.25
63088;BME280;49173;43.164;27.786;2022-09-20T15:25:30;100376.75;;;21.02;32.37
63088;BME280;49173;43.164;27.786;2022-09-20T15:27:56;100374.31;;;20.99;32.56
63088;BME280;49173;43.164;27.786;2022-09-20T15:30:23;100370.19;;;20.95;32.45
63088;BME280;49173;43.164;27.786;2022-09-20T15:32:51;100370.47;;;20.92;32.67
63088;BME280;49173;43.164;27.786;2022-09-20T15:35:17;100372.50;;;20.90;32.95
63088;BME280;49173;43.164;27.786;2022-09-20T15:37:43;100370.34;;;20.84;33.05
63088;BME280;49173;43.164;27.786;2022-09-20T15:40:10;100377.44;;;20.77;33.19
63088;BME280;49173;43.164;27.786;2022-09-20T15:42:36;100373.28;;;20.73;33.56
63088;BME280;49173;43.164;27.786;2022-09-20T15:45:10;100369.28;;;20.67;33.81
63088;BME280;49173;43.164;27.786;2022-09-20T15:47:39;100376.91;;;20.64;33.77
63088;BME280;49173;43.164;27.786;2022-09-20T15:50:05;100382.94;;;20.57;34.03
63088;BME280;49173;43.164;27.786;2022-09-20T15:52:36;100380.25;;;20.48;34.14
63088;BME280;49173;43.164;27.786;2022-09-20T15:55:05;100375.50;;;20.40;34.64
63088;BME280;49173;43.164;27.786;2022-09-20T15:57:32;100381.00;;;20.30;34.97
63088;BME280;49173;43.164;27.786;2022-09-20T15:59:58;100371.94;;;20.20;35.43
63088;BME280;49173;43.164;27.786;2022-09-20T16:02:26;100378.13;;;20.13;34.90
63088;BME280;49173;43.164;27.786;2022-09-20T16:04:52;100384.91;;;20.09;34.92
63088;BME280;49173;43.164;27.786;2022-09-20T16:07:22;100395.22;;;20.05;35.27
63088;BME280;49173;43.164;27.786;2022-09-20T16:09:55;100386.31;;;19.93;35.69
63088;BME280;49173;43.164;27.786;2022-09-20T16:12:22;100385.47;;;19.83;36.02
63088;BME280;49173;43.164;27.786;2022-09-20T16:14:48;100387.19;;;19.74;36.35
63088;BME280;49173;43.164;27.786;2022-09-20T16:17:16;100387.91;;;19.67;36.67
63088;BME280;49173;43.164;27.786;2022-09-20T16:19:42;100399.50;;;19.59;36.83
63088;BME280;49173;43.164;27.786;2022-09-20T16:22:10;100395.72;;;19.51;36.82
63088;BME280;49173;43.164;27.786;2022-09-20T16:24:37;100405.44;;;19.43;36.92
63088;BME280;49173;43.164;27.786;2022-09-20T16:27:05;100396.97;;;19.37;37.22
63088;BME280;49173;43.164;27.786;2022-09-20T16:29:31;100412.03;;;19.31;37.08
63088;BME280;49173;43.164;27.786;2022-09-20T16:31:59;100409.13;;;19.23;37.52
63088;BME280;49173;43.164;27.786;2022-09-20T16:34:26;100413.41;;;19.16;37.67
63088;BME280;49173;43.164;27.786;2022-09-20T16:36:58;100412.22;;;19.09;37.74
63088;BME280;49173;43.164;27.786;2022-09-20T16:39:26;100416.50;;;19.02;37.80
63088;BME280;49173;43.164;27.786;2022-09-20T16:41:54;100413.59;;;18.93;38.19
63088;BME280;49173;43.164;27.786;2022-09-20T16:44:21;100415.16;;;18.86;38.32
63088;BME280;49173;43.164;27.786;2022-09-20T16:46:48;100415.81;;;18.79;38.77
63088;BME280;49173;43.164;27.786;2022-09-20T16:49:14;100418.22;;;18.72;38.89
63088;BME280;49173;43.164;27.786;2022-09-20T16:51:43;100423.44;;;18.64;39.30
63088;BME280;49173;43.164;27.786;2022-09-20T16:54:12;100425.97;;;18.56;39.81
63088;BME280;49173;43.164;27.786;2022-09-20T16:56:41;100432.94;;;18.49;39.86
63088;BME280;49173;43.164;27.786;2022-09-20T16:59:08;100425.59;;;18.39;39.77
63088;BME280;49173;43.164;27.786;2022-09-20T17:01:36;100429.84;;;18.32;40.33
63088;BME280;49173;43.164;27.786;2022-09-20T17:04:03;100427.66;;;18.26;39.96
63088;BME280;49173;43.164;27.786;2022-09-20T17:06:32;100432.63;;;18.21;39.74
63088;BME280;49173;43.164;27.786;2022-09-20T17:08:59;100433.75;;;18.19;39.52
63088;BME280;49173;43.164;27.786;2022-09-20T17:11:29;100434.00;;;18.16;39.74
63088;BME280;49173;43.164;27.786;2022-09-20T17:13:56;100435.13;;;18.13;39.66
63088;BME280;49173;43.164;27.786;2022-09-20T17:16:24;100441.06;;;18.07;39.93
63088;BME280;49173;43.164;27.786;2022-09-20T17:18:53;100443.94;;;18.05;39.96
63088;BME280;49173;43.164;27.786;2022-09-20T17:21:20;100444.31;;;18.01;40.23
63088;BME280;49173;43.164;27.786;2022-09-20T17:23:49;100440.13;;;17.97;40.53
63088;BME280;49173;43.164;27.786;2022-09-20T17:26:23;100441.53;;;17.91;40.33
63088;BME280;49173;43.164;27.786;2022-09-20T17:28:50;100443.03;;;17.84;40.45
63088;BME280;49173;43.164;27.786;2022-09-20T17:31:19;100452.53;;;17.78;40.54
63088;BME280;49173;43.164;27.786;2022-09-20T17:33:47;100450.94;;;17.76;40.52
63088;BME280;49173;43.164;27.786;2022-09-20T17:36:16;100450.34;;;17.72;41.09
63088;BME280;49173;43.164;27.786;2022-09-20T17:38:44;100458.97;;;17.66;41.51
63088;BME280;49173;43.164;27.786;2022-09-20T17:41:13;100458.72;;;17.58;41.92
63088;BME280;49173;43.164;27.786;2022-09-20T17:43:40;100464.78;;;17.50;42.08
63088;BME280;49173;43.164;27.786;2022-09-20T17:46:13;100477.50;;;17.39;42.55
63088;BME280;49173;43.164;27.786;2022-09-20T17:48:41;100469.25;;;17.29;42.59
63088;BME280;49173;43.164;27.786;2022-09-20T17:51:09;100470.13;;;17.18;42.60
63088;BME280;49173;43.164;27.786;2022-09-20T17:53:35;100474.09;;;17.14;42.68
63088;BME280;49173;43.164;27.786;2022-09-20T17:56:02;100476.03;;;17.12;42.92
63088;BME280;49173;43.164;27.786;2022-09-20T17:58:29;100471.59;;;17.11;42.59
63088;BME280;49173;43.164;27.786;2022-09-20T18:01:01;100483.44;;;17.10;42.81
63088;BME280;49173;43.164;27.786;2022-09-20T18:03:27;100490.00;;;17.08;42.59
63088;BME280;49173;43.164;27.786;2022-09-20T18:05:53;100491.34;;;17.02;42.49
63088;BME280;49173;43.164;27.786;2022-09-20T18:08:19;100495.91;;;17.01;42.71
63088;BME280;49173;43.164;27.786;2022-09-20T18:10:55;100493.31;;;17.00;42.78